createdAt,value
2023-03-11T00:02:15.767Z,11.40
2023-03-11T00:04:42.633Z,11.17
2023-03-11T00:07:09.975Z,11.53
2023-03-11T00:09:36.715Z,11.83
2023-03-11T00:12:03.971Z,12.03
2023-03-11T00:14:30.479Z,10.90
2023-03-11T00:16:57.142Z,11.80
2023-03-11T00:19:23.653Z,12.17
2023-03-11T00:21:50.179Z,11.13
2023-03-11T00:24:16.633Z,10.40
2023-03-11T00:26:43.330Z,11.80
2023-03-11T00:29:09.822Z,10.23
2023-03-11T00:31:36.279Z,10.93
2023-03-11T00:34:02.834Z,10.17
2023-03-11T00:36:36.698Z,9.93
2023-03-11T00:39:06.713Z,9.87
2023-03-11T00:41:34.550Z,9.43
2023-03-11T00:44:01.555Z,9.00
2023-03-11T00:46:29.806Z,8.73
2023-03-11T00:48:56.813Z,9.00
2023-03-11T00:51:23.292Z,8.93
2023-03-11T00:53:49.757Z,10.63
2023-03-11T00:56:16.432Z,9.17
2023-03-11T00:58:44.407Z,8.27
2023-03-11T01:01:13.769Z,8.93
2023-03-11T01:03:40.664Z,9.60
2023-03-11T01:06:07.606Z,8.70
2023-03-11T01:08:34.410Z,9.00
2023-03-11T01:11:01.484Z,9.50
2023-03-11T01:13:29.114Z,10.57
2023-03-11T01:15:56.492Z,10.07
2023-03-11T01:18:23.438Z,10.00
2023-03-11T01:20:50.414Z,9.53
2023-03-11T01:23:17.691Z,9.80
2023-03-11T01:25:44.201Z,9.90
2023-03-11T01:28:11.295Z,9.17
2023-03-11T01:30:39.960Z,9.67
2023-03-11T01:33:07.642Z,9.60
2023-03-11T01:35:35.426Z,9.73
2023-03-11T01:38:01.885Z,10.63
2023-03-11T01:40:37.332Z,9.60
2023-03-11T01:43:06.263Z,10.37
2023-03-11T01:45:41.756Z,10.23
2023-03-11T01:48:09.738Z,10.70
2023-03-11T01:50:40.387Z,10.87
2023-03-11T01:53:07.319Z,11.57
2023-03-11T01:55:34.195Z,12.50
2023-03-11T01:58:03.435Z,12.87
2023-03-11T02:00:29.917Z,12.03
2023-03-11T02:02:58.784Z,13.43
2023-03-11T02:05:25.672Z,13.30
2023-03-11T02:07:54.039Z,13.97
2023-03-11T02:10:20.756Z,12.17
2023-03-11T02:12:49.062Z,12.20
2023-03-11T02:15:16.447Z,12.83
2023-03-11T02:17:43.475Z,13.20
2023-03-11T02:20:28.770Z,12.57
2023-03-11T02:22:57.246Z,12.83
2023-03-11T02:25:46.058Z,11.53
2023-03-11T02:28:14.271Z,10.13
2023-03-11T02:30:42.647Z,11.63
2023-03-11T02:33:09.910Z,12.27
2023-03-11T02:35:36.935Z,10.23
2023-03-11T02:38:03.484Z,11.97
2023-03-11T02:41:00.420Z,12.13
2023-03-11T02:43:43.972Z,11.80
2023-03-11T02:46:10.900Z,11.13
2023-03-11T02:48:37.999Z,12.23
2023-03-11T02:51:04.840Z,11.17
2023-03-11T02:53:35.640Z,11.63
2023-03-11T02:56:02.106Z,10.57
2023-03-11T02:58:28.540Z,11.50
2023-03-11T03:00:55.142Z,10.23
2023-03-11T03:03:21.640Z,11.97
2023-03-11T03:05:48.255Z,10.40
2023-03-11T03:08:14.711Z,11.63
2023-03-11T03:10:41.193Z,11.57
2023-03-11T03:13:07.740Z,12.70
2023-03-11T03:15:34.241Z,14.00
2023-03-11T03:18:00.683Z,12.57
2023-03-11T03:20:27.185Z,10.93
2023-03-11T03:22:53.673Z,12.07
2023-03-11T03:25:20.141Z,12.90
2023-03-11T03:27:46.631Z,10.93
2023-03-11T03:30:13.236Z,11.87
2023-03-11T03:32:39.813Z,13.00
2023-03-11T03:35:06.972Z,12.27
2023-03-11T03:37:35.478Z,11.97
2023-03-11T03:40:02.418Z,11.07
2023-03-11T03:42:29.389Z,11.27
2023-03-11T03:44:55.844Z,8.50
2023-03-11T03:47:22.333Z,10.67
2023-03-11T03:49:48.898Z,9.67
2023-03-11T03:52:15.381Z,10.00
2023-03-11T03:54:42.040Z,10.77
2023-03-11T03:57:08.959Z,11.33
2023-03-11T03:59:35.642Z,10.20
2023-03-11T04:02:02.273Z,11.33
2023-03-11T04:04:28.868Z,12.10
2023-03-11T04:06:55.351Z,11.40
2023-03-11T04:09:21.890Z,12.13
2023-03-11T04:11:48.376Z,10.83
2023-03-11T04:14:14.865Z,11.97
2023-03-11T04:16:41.471Z,11.50
2023-03-11T04:19:08.130Z,11.23
2023-03-11T04:21:34.732Z,12.17
2023-03-11T04:24:01.323Z,12.47
2023-03-11T04:26:28.603Z,12.47
2023-03-11T04:28:55.083Z,12.00
2023-03-11T04:31:21.645Z,12.47
2023-03-11T04:33:48.359Z,12.43
2023-03-11T04:36:14.919Z,11.70
2023-03-11T04:38:41.370Z,11.93
2023-03-11T04:41:08.221Z,12.30
2023-03-11T04:43:35.024Z,11.00
2023-03-11T04:46:01.583Z,11.63
2023-03-11T04:48:28.166Z,12.13
2023-03-11T04:50:55.555Z,12.50
2023-03-11T04:53:22.710Z,11.30
2023-03-11T04:55:50.485Z,11.13
2023-03-11T04:58:16.969Z,11.50
2023-03-11T05:00:43.436Z,11.40
2023-03-11T05:03:10.078Z,11.93
2023-03-11T05:05:36.546Z,11.30
2023-03-11T05:08:03.580Z,11.60
2023-03-11T05:10:31.850Z,11.47
2023-03-11T05:12:59.199Z,12.37
2023-03-11T05:15:25.773Z,12.03
2023-03-11T05:17:52.269Z,10.40
2023-03-11T05:20:18.833Z,12.17
2023-03-11T05:22:45.334Z,12.30
2023-03-11T05:25:11.764Z,11.20
2023-03-11T05:27:38.271Z,12.20
2023-03-11T05:30:05.203Z,11.30
2023-03-11T05:32:31.748Z,11.57
2023-03-11T05:34:58.223Z,10.83
2023-03-11T05:37:24.722Z,11.30
2023-03-11T05:39:52.252Z,11.03
2023-03-11T05:42:21.258Z,11.10
2023-03-11T05:44:47.970Z,10.90
2023-03-11T05:47:14.464Z,11.73
2023-03-11T05:49:40.905Z,11.77
2023-03-11T05:52:07.370Z,10.90
2023-03-11T05:54:33.882Z,10.70
2023-03-11T05:57:00.316Z,10.37
2023-03-11T05:59:26.794Z,10.83
2023-03-11T06:01:53.319Z,10.90
2023-03-11T06:04:20.073Z,11.27
2023-03-11T06:06:46.754Z,10.53
2023-03-11T06:09:14.659Z,11.53
2023-03-11T06:11:41.778Z,10.83
2023-03-11T06:14:11.689Z,11.60
2023-03-11T06:16:38.236Z,10.17
2023-03-11T06:19:04.871Z,10.93
2023-03-11T06:21:31.620Z,10.57
2023-03-11T06:23:58.173Z,11.10
2023-03-11T06:26:25.003Z,10.60
2023-03-11T06:28:52.619Z,11.07
2023-03-11T06:31:25.175Z,10.47
2023-03-11T06:33:51.988Z,10.50
2023-03-11T06:36:19.722Z,9.73
2023-03-11T06:38:46.693Z,10.23
2023-03-11T06:41:13.252Z,11.13
2023-03-11T06:43:39.772Z,10.77
2023-03-11T06:46:15.354Z,9.87
2023-03-11T06:48:42.068Z,10.50
2023-03-11T06:51:10.339Z,10.13
2023-03-11T06:53:36.819Z,11.20
2023-03-11T06:56:09.320Z,10.90
2023-03-11T06:58:37.314Z,11.30
2023-03-11T07:01:08.398Z,10.70
2023-03-11T07:03:34.984Z,9.67
2023-03-11T07:06:01.508Z,9.70
2023-03-11T07:08:28.254Z,11.10
2023-03-11T07:11:13.161Z,10.20
2023-03-11T07:13:39.750Z,9.20
2023-03-11T07:16:12.027Z,9.37
2023-03-11T07:18:38.839Z,9.03
2023-03-11T07:21:06.752Z,9.57
2023-03-11T07:23:34.032Z,8.40
2023-03-11T07:26:00.536Z,8.27
2023-03-11T07:28:28.176Z,8.30
2023-03-11T07:30:55.060Z,8.00
2023-03-11T07:33:24.086Z,7.37
2023-03-11T07:35:51.427Z,7.27
2023-03-11T07:38:19.800Z,7.07
2023-03-11T07:40:46.441Z,6.70
2023-03-11T07:43:12.939Z,6.70
2023-03-11T07:45:39.442Z,6.97
2023-03-11T07:48:06.213Z,6.20
2023-03-11T07:50:32.692Z,5.70
2023-03-11T07:52:59.163Z,6.00
2023-03-11T07:55:25.604Z,6.80
2023-03-11T07:57:52.251Z,6.60
2023-03-11T08:00:19.397Z,6.20
2023-03-11T08:02:46.030Z,5.77
2023-03-11T08:05:12.681Z,5.80
2023-03-11T08:07:39.349Z,5.50
2023-03-11T08:10:06.851Z,5.60
2023-03-11T08:12:33.333Z,5.77
2023-03-11T08:14:59.799Z,6.17
2023-03-11T08:17:26.280Z,5.53
2023-03-11T08:19:52.967Z,5.70
2023-03-11T08:22:19.431Z,5.47
2023-03-11T08:24:45.865Z,5.10
2023-03-11T08:27:12.404Z,5.33
2023-03-11T08:29:38.962Z,5.50
2023-03-11T08:32:05.823Z,5.63
2023-03-11T08:34:32.971Z,4.97
2023-03-11T08:36:59.647Z,4.87
2023-03-11T08:39:26.160Z,4.43
2023-03-11T08:41:52.575Z,5.47
2023-03-11T08:44:19.034Z,4.80
2023-03-11T08:46:45.780Z,5.00
2023-03-11T08:49:12.330Z,4.80
2023-03-11T08:51:38.851Z,5.10
2023-03-11T08:54:05.525Z,4.77
2023-03-11T08:56:31.979Z,4.07
2023-03-11T08:58:58.481Z,4.30
2023-03-11T09:01:25.705Z,4.27
2023-03-11T09:03:52.582Z,4.17
2023-03-11T09:06:19.306Z,4.23
2023-03-11T09:08:46.912Z,3.80
2023-03-11T09:11:13.821Z,3.70
2023-03-11T09:13:41.483Z,3.50
2023-03-11T09:16:16.372Z,3.43
2023-03-11T09:18:43.203Z,3.63
2023-03-11T09:21:10.258Z,4.00
2023-03-11T09:23:37.106Z,4.20
2023-03-11T09:26:03.934Z,3.60
2023-03-11T09:28:30.446Z,3.20
2023-03-11T09:30:57.440Z,3.87
2023-03-11T09:33:24.091Z,3.03
2023-03-11T09:35:50.561Z,3.60
2023-03-11T09:38:17.058Z,3.33
2023-03-11T09:41:00.234Z,3.20
2023-03-11T09:43:51.767Z,2.63
2023-03-11T09:46:35.004Z,3.10
2023-03-11T09:49:33.748Z,3.00
2023-03-11T09:52:11.971Z,2.73
2023-03-11T09:54:56.955Z,2.47
2023-03-11T09:57:26.802Z,2.67
2023-03-11T09:59:53.412Z,2.77
2023-03-11T10:02:22.940Z,2.30
2023-03-11T10:05:04.253Z,2.80
2023-03-11T10:07:38.227Z,2.37
2023-03-11T10:10:06.120Z,2.50
2023-03-11T10:12:51.228Z,2.60
2023-03-11T10:15:40.474Z,2.50
2023-03-11T10:18:44.138Z,2.47
2023-03-11T10:21:33.742Z,2.77
2023-03-11T10:24:21.734Z,2.70
2023-03-11T10:26:52.124Z,2.50
2023-03-11T10:29:31.142Z,2.70
2023-03-11T10:32:16.231Z,2.67
2023-03-11T10:34:48.144Z,2.07
2023-03-11T10:37:19.410Z,2.50
2023-03-11T10:39:48.299Z,2.30
2023-03-11T10:42:24.690Z,2.23
2023-03-11T10:44:52.606Z,2.53
2023-03-11T10:47:23.092Z,3.10
2023-03-11T10:49:50.351Z,2.20
2023-03-11T10:52:16.851Z,2.50
2023-03-11T10:54:46.620Z,2.50
2023-03-11T10:57:33.435Z,2.30
2023-03-11T11:00:01.988Z,2.07
2023-03-11T11:02:34.255Z,2.00
2023-03-11T11:05:20.095Z,2.03
2023-03-11T11:07:53.355Z,1.83
2023-03-11T11:10:25.088Z,2.23
2023-03-11T11:12:56.348Z,1.63
2023-03-11T11:15:37.237Z,1.40
2023-03-11T11:18:06.927Z,1.50
2023-03-11T11:20:34.041Z,1.40
2023-03-11T11:23:02.188Z,2.00
2023-03-11T11:25:35.526Z,1.47
2023-03-11T11:28:13.204Z,1.40
2023-03-11T11:30:59.353Z,1.80
2023-03-11T11:33:49.416Z,1.90
2023-03-11T11:36:16.447Z,1.40
2023-03-11T11:38:43.251Z,1.40
2023-03-11T11:41:14.809Z,1.60
2023-03-11T11:43:59.463Z,1.70
2023-03-11T11:46:38.473Z,1.27
2023-03-11T11:49:31.781Z,1.73
2023-03-11T11:52:11.935Z,1.40
2023-03-11T11:54:54.475Z,1.13
2023-03-11T11:57:22.274Z,1.30
2023-03-11T11:59:48.846Z,1.30
2023-03-11T12:02:33.922Z,1.40
2023-03-11T12:05:23.824Z,1.70
2023-03-11T12:08:12.297Z,1.17
2023-03-11T12:10:58.038Z,1.30
2023-03-11T12:13:33.566Z,1.27
2023-03-11T12:16:06.386Z,1.40
2023-03-11T12:18:35.345Z,1.43
2023-03-11T12:21:27.509Z,1.27
2023-03-11T12:24:06.189Z,1.20
2023-03-11T12:26:35.829Z,1.10
2023-03-11T12:29:22.951Z,1.10
2023-03-11T12:31:49.774Z,1.10
2023-03-11T12:34:19.882Z,1.20
2023-03-11T12:36:47.257Z,1.70
2023-03-11T12:39:28.827Z,1.10
2023-03-11T12:42:10.921Z,1.30
2023-03-11T12:44:38.761Z,1.20
2023-03-11T12:47:08.291Z,1.30
2023-03-11T12:49:37.127Z,1.33
2023-03-11T12:52:13.310Z,1.20
2023-03-11T12:54:41.466Z,1.27
2023-03-11T12:57:17.362Z,1.50
2023-03-11T12:59:52.839Z,1.63
2023-03-11T13:02:38.107Z,1.30
2023-03-11T13:05:16.795Z,1.70
2023-03-11T13:07:47.809Z,1.27
2023-03-11T13:10:17.976Z,1.20
2023-03-11T13:12:49.327Z,1.10
2023-03-11T13:15:19.806Z,1.20
2023-03-11T13:18:14.622Z,1.20
2023-03-11T13:20:44.322Z,1.40
2023-03-11T13:23:13.927Z,1.27
2023-03-11T13:25:43.675Z,1.40
2023-03-11T13:28:33.987Z,1.17
2023-03-11T13:31:38.411Z,1.60
2023-03-11T13:34:20.530Z,1.23
2023-03-11T13:37:17.501Z,1.77
2023-03-11T13:40:00.175Z,1.60
2023-03-11T13:42:38.318Z,1.40
2023-03-11T13:45:07.582Z,1.23
2023-03-11T13:47:35.760Z,1.47
2023-03-11T13:50:12.732Z,1.20
2023-03-11T13:52:47.616Z,1.20
2023-03-11T13:55:52.539Z,1.27
2023-03-11T13:58:24.316Z,1.27
2023-03-11T14:00:55.816Z,1.27
2023-03-11T14:03:25.374Z,1.20
2023-03-11T14:06:03.380Z,1.10
2023-03-11T14:08:32.394Z,1.47
2023-03-11T14:10:59.959Z,1.10
2023-03-11T14:13:38.725Z,1.37
2023-03-11T14:16:21.419Z,1.20
2023-03-11T14:18:50.235Z,1.20
2023-03-11T14:21:19.724Z,1.40
2023-03-11T14:23:48.768Z,1.23
2023-03-11T14:26:30.354Z,0.90
2023-03-11T14:29:02.546Z,1.37
2023-03-11T14:31:37.832Z,1.47
2023-03-11T14:34:13.924Z,1.67
2023-03-11T14:37:10.750Z,1.27
2023-03-11T14:39:39.297Z,1.10
2023-03-11T14:42:26.525Z,1.60
2023-03-11T14:45:17.892Z,1.23
2023-03-11T14:48:12.510Z,1.50
2023-03-11T14:50:39.502Z,1.90
2023-03-11T14:53:24.354Z,1.70
2023-03-11T14:55:53.643Z,2.40
2023-03-11T14:58:35.784Z,1.83
2023-03-11T15:01:18.028Z,1.60
2023-03-11T15:04:06.268Z,1.70
2023-03-11T15:06:33.612Z,2.00
2023-03-11T15:09:02.769Z,2.00
2023-03-11T15:11:29.574Z,2.00
2023-03-11T15:14:14.788Z,1.70
2023-03-11T15:16:41.314Z,2.00
2023-03-11T15:19:29.803Z,2.70
2023-03-11T15:21:59.878Z,2.03
2023-03-11T15:24:28.738Z,1.73
2023-03-11T15:27:01.971Z,1.80
2023-03-11T15:29:30.016Z,1.70
2023-03-11T15:31:59.984Z,2.00
2023-03-11T15:34:32.058Z,2.30
2023-03-11T15:37:19.347Z,1.70
2023-03-11T15:39:47.374Z,2.07
2023-03-11T15:42:18.635Z,2.13
2023-03-11T15:45:12.058Z,1.80
2023-03-11T15:47:39.357Z,1.90
2023-03-11T15:50:40.138Z,1.80
2023-03-11T15:53:13.836Z,2.10
2023-03-11T15:55:40.651Z,2.00
2023-03-11T15:58:08.457Z,2.30
2023-03-11T16:00:36.620Z,2.60
2023-03-11T16:03:04.552Z,2.00
2023-03-11T16:05:31.380Z,2.00
2023-03-11T16:07:58.130Z,1.77
2023-03-11T16:10:25.848Z,1.87
2023-03-11T16:12:52.822Z,2.50
2023-03-11T16:15:24.929Z,2.37
2023-03-11T16:17:52.953Z,2.20
2023-03-11T16:20:21.408Z,2.20
2023-03-11T16:22:49.790Z,2.30
2023-03-11T16:25:33.459Z,2.50
2023-03-11T16:28:00.723Z,2.53
2023-03-11T16:30:29.495Z,2.10
2023-03-11T16:32:56.431Z,2.33
2023-03-11T16:35:23.537Z,2.80
2023-03-11T16:37:50.670Z,2.70
2023-03-11T16:40:20.074Z,2.20
2023-03-11T16:42:47.419Z,2.23
2023-03-11T16:45:16.247Z,2.40
2023-03-11T16:47:43.088Z,2.23
2023-03-11T16:50:10.836Z,2.40
2023-03-11T16:52:37.908Z,2.10
2023-03-11T16:55:05.534Z,2.20
2023-03-11T16:57:32.406Z,2.37
2023-03-11T16:59:58.940Z,2.80
2023-03-11T17:02:25.564Z,2.47
2023-03-11T17:04:52.133Z,2.97
2023-03-11T17:07:18.749Z,2.67
2023-03-11T17:09:45.220Z,2.93
2023-03-11T17:12:15.672Z,2.27
2023-03-11T17:14:42.421Z,2.33
2023-03-11T17:17:08.912Z,3.33
2023-03-11T17:19:35.675Z,1.70
2023-03-11T17:22:02.301Z,1.90
2023-03-11T17:24:29.795Z,2.00
2023-03-11T17:26:56.397Z,2.33
2023-03-11T17:29:23.138Z,2.20
2023-03-11T17:31:49.893Z,2.30
2023-03-11T17:34:16.741Z,2.33
2023-03-11T17:36:43.257Z,2.07
2023-03-11T17:39:09.804Z,2.67
2023-03-11T17:41:36.884Z,2.43
2023-03-11T17:44:03.499Z,2.37
2023-03-11T17:46:30.089Z,2.57
2023-03-11T17:48:56.880Z,2.30
2023-03-11T17:51:25.808Z,2.03
2023-03-11T17:53:54.506Z,2.40
2023-03-11T17:56:21.670Z,2.10
2023-03-11T17:58:49.267Z,2.10
2023-03-11T18:01:23.733Z,2.20
2023-03-11T18:03:50.367Z,1.97
2023-03-11T18:06:18.347Z,2.13
2023-03-11T18:08:45.088Z,2.50
2023-03-11T18:11:18.661Z,1.80
2023-03-11T18:13:45.798Z,1.80
2023-03-11T18:16:15.478Z,2.30
2023-03-11T18:18:44.581Z,2.90
2023-03-11T18:21:13.706Z,3.10
2023-03-11T18:23:40.633Z,2.63
2023-03-11T18:26:08.939Z,2.83
2023-03-11T18:28:36.050Z,2.40
2023-03-11T18:31:14.830Z,1.93
2023-03-11T18:33:42.988Z,2.23
2023-03-11T18:36:13.608Z,2.13
2023-03-11T18:38:40.128Z,2.67
2023-03-11T18:41:06.579Z,2.20
2023-03-11T18:43:33.116Z,2.40
2023-03-11T18:46:00.642Z,3.47
2023-03-11T18:48:27.655Z,3.27
2023-03-11T18:50:55.009Z,3.30
2023-03-11T18:53:21.879Z,2.70
2023-03-11T18:55:48.593Z,3.33
2023-03-11T18:58:15.120Z,3.30
2023-03-11T19:00:41.599Z,2.80
2023-03-11T19:03:13.579Z,3.07
2023-03-11T19:05:40.031Z,2.83
2023-03-11T19:08:06.622Z,2.70
2023-03-11T19:10:33.102Z,3.10
2023-03-11T19:12:59.592Z,3.00
2023-03-11T19:15:26.190Z,3.00
2023-03-11T19:18:05.840Z,3.90
2023-03-11T19:20:33.377Z,2.80
2023-03-11T19:22:59.892Z,2.37
2023-03-11T19:25:28.002Z,3.20
2023-03-11T19:27:55.277Z,2.83
2023-03-11T19:30:22.090Z,2.10
2023-03-11T19:32:52.665Z,3.83
2023-03-11T19:35:24.948Z,3.13
2023-03-11T19:37:57.130Z,2.60
2023-03-11T19:40:24.971Z,2.90
2023-03-11T19:42:51.717Z,3.30
2023-03-11T19:45:18.244Z,2.40
2023-03-11T19:47:51.596Z,2.73
2023-03-11T19:50:18.707Z,2.50
2023-03-11T19:52:45.675Z,2.50
2023-03-11T19:55:12.291Z,2.17
2023-03-11T19:57:38.744Z,2.20
2023-03-11T20:00:05.988Z,1.83
2023-03-11T20:02:32.651Z,2.00
2023-03-11T20:04:59.256Z,1.67
2023-03-11T20:07:25.865Z,1.80
2023-03-11T20:09:52.414Z,2.37
2023-03-11T20:12:20.554Z,3.10
2023-03-11T20:14:47.057Z,2.47
2023-03-11T20:17:14.688Z,2.50
2023-03-11T20:19:41.408Z,2.37
2023-03-11T20:22:07.897Z,2.77
2023-03-11T20:24:34.557Z,2.40
2023-03-11T20:27:01.176Z,2.10
2023-03-11T20:29:27.660Z,1.83
2023-03-11T20:31:54.327Z,1.77
2023-03-11T20:34:20.892Z,1.70
2023-03-11T20:36:48.694Z,1.60
2023-03-11T20:39:15.233Z,2.30
2023-03-11T20:41:41.986Z,1.90
2023-03-11T20:44:12.169Z,1.90
2023-03-11T20:46:38.690Z,1.90
2023-03-11T20:49:05.440Z,2.23
2023-03-11T20:51:32.075Z,2.50
2023-03-11T20:53:58.842Z,2.20
2023-03-11T20:56:26.782Z,2.57
2023-03-11T20:58:55.824Z,2.30
2023-03-11T21:01:25.389Z,2.37
2023-03-11T21:03:57.078Z,3.03
2023-03-11T21:06:26.438Z,3.20
2023-03-11T21:08:54.542Z,2.60
2023-03-11T21:11:21.474Z,2.67
2023-03-11T21:13:47.930Z,2.33
2023-03-11T21:16:16.857Z,2.77
2023-03-11T21:18:44.483Z,2.93
2023-03-11T21:21:12.587Z,2.70
2023-03-11T21:23:40.994Z,2.47
2023-03-11T21:26:07.924Z,2.57
2023-03-11T21:28:35.560Z,2.83
2023-03-11T21:31:09.122Z,2.53
2023-03-11T21:33:36.201Z,3.53
2023-03-11T21:36:04.549Z,2.80
2023-03-11T21:38:32.622Z,3.20
2023-03-11T21:41:26.243Z,2.90
2023-03-11T21:43:55.243Z,3.27
2023-03-11T21:46:24.940Z,3.07
2023-03-11T21:48:52.155Z,3.63
2023-03-11T21:51:20.102Z,3.67
2023-03-11T21:53:47.505Z,3.20
2023-03-11T21:56:15.201Z,2.77
2023-03-11T21:58:42.101Z,2.60
2023-03-11T22:01:10.059Z,2.60
2023-03-11T22:03:37.452Z,2.40
2023-03-11T22:06:07.034Z,2.90
2023-03-11T22:08:33.963Z,2.10
2023-03-11T22:11:00.880Z,1.97
2023-03-11T22:13:27.517Z,1.73
2023-03-11T22:15:54.186Z,2.20
2023-03-11T22:18:23.591Z,1.93
2023-03-11T22:20:50.617Z,2.07
2023-03-11T22:23:17.254Z,1.50
2023-03-11T22:25:43.903Z,1.70
2023-03-11T22:28:13.158Z,1.60
2023-03-11T22:30:39.785Z,1.80
2023-03-11T22:33:07.079Z,2.27
2023-03-11T22:35:34.708Z,2.40
2023-03-11T22:38:01.657Z,2.23
2023-03-11T22:40:28.400Z,2.13
2023-03-11T22:42:55.285Z,2.20
2023-03-11T22:45:23.141Z,2.33
2023-03-11T22:47:53.336Z,2.27
2023-03-11T22:50:20.409Z,2.20
2023-03-11T22:52:46.920Z,2.30
2023-03-11T22:55:13.408Z,2.60
2023-03-11T22:57:39.847Z,3.23
2023-03-11T23:00:17.274Z,3.50
2023-03-11T23:02:48.256Z,3.43
2023-03-11T23:05:16.061Z,3.20
2023-03-11T23:07:43.571Z,4.07
2023-03-11T23:10:11.936Z,3.30
2023-03-11T23:12:38.826Z,3.03
2023-03-11T23:15:07.961Z,3.37
2023-03-11T23:17:35.062Z,3.40
2023-03-11T23:20:01.942Z,2.77
2023-03-11T23:22:28.472Z,3.10
2023-03-11T23:24:54.938Z,3.37
2023-03-11T23:27:22.277Z,3.17
2023-03-11T23:29:51.141Z,3.37
2023-03-11T23:32:24.117Z,4.07
2023-03-11T23:34:50.659Z,3.40
2023-03-11T23:37:17.180Z,3.73
2023-03-11T23:39:43.648Z,3.30
2023-03-11T23:42:24.529Z,3.13
2023-03-11T23:44:53.705Z,3.77
2023-03-11T23:47:20.605Z,2.63
2023-03-11T23:49:47.069Z,2.77
2023-03-11T23:52:13.587Z,2.77
2023-03-11T23:54:40.036Z,2.83
2023-03-11T23:57:06.503Z,3.53
2023-03-11T23:59:33.028Z,2.63
